createdAt,value
2018-04-12T00:00:21.864Z,0.00
2018-04-12T00:01:22.052Z,0.00
2018-04-12T00:02:22.237Z,0.00
2018-04-12T00:03:22.424Z,0.00
2018-04-12T00:04:22.611Z,0.00
2018-04-12T00:05:22.797Z,0.00
2018-04-12T00:06:22.985Z,0.00
2018-04-12T00:07:23.170Z,0.00
2018-04-12T00:08:23.355Z,0.00
2018-04-12T00:09:23.543Z,0.00
2018-04-12T00:10:23.728Z,0.00
2018-04-12T00:11:23.913Z,0.00
2018-04-12T00:12:24.105Z,0.00
2018-04-12T00:13:24.287Z,0.00
2018-04-12T00:14:24.473Z,0.00
2018-04-12T00:15:24.660Z,0.00
2018-04-12T00:16:24.847Z,0.00
2018-04-12T00:17:25.035Z,0.00
2018-04-12T00:18:25.223Z,0.00
2018-04-12T00:19:25.409Z,0.00
2018-04-12T00:20:25.594Z,0.00
2018-04-12T00:21:25.782Z,0.00
2018-04-12T00:22:25.967Z,0.00
2018-04-12T00:23:26.153Z,0.00
2018-04-12T00:24:26.339Z,0.00
2018-04-12T00:25:26.527Z,0.00
2018-04-12T00:26:26.713Z,0.00
2018-04-12T00:27:26.899Z,0.00
2018-04-12T00:28:27.086Z,0.00
2018-04-12T00:29:27.272Z,0.00
2018-04-12T00:30:27.459Z,0.00
2018-04-12T00:31:27.645Z,0.00
2018-04-12T00:32:27.831Z,0.00
2018-04-12T00:33:28.021Z,0.00
2018-04-12T00:34:28.202Z,0.00
2018-04-12T00:35:28.388Z,0.00
2018-04-12T00:36:28.578Z,0.00
2018-04-12T00:37:28.761Z,0.00
2018-04-12T00:38:28.947Z,0.00
2018-04-12T00:39:29.135Z,0.00
2018-04-12T00:40:29.323Z,0.00
2018-04-12T00:41:29.512Z,0.00
2018-04-12T00:42:29.697Z,0.00
2018-04-12T00:43:29.883Z,0.00
2018-04-12T00:44:30.072Z,0.00
2018-04-12T00:45:30.257Z,0.00
2018-04-12T00:46:30.443Z,0.00
2018-04-12T00:47:30.631Z,0.00
2018-04-12T00:48:30.816Z,0.00
2018-04-12T00:49:31.004Z,0.00
2018-04-12T00:50:31.188Z,0.00
2018-04-12T00:51:31.375Z,0.00
2018-04-12T00:52:31.562Z,0.00
2018-04-12T00:53:31.748Z,0.00
2018-04-12T00:54:31.935Z,0.00
2018-04-12T00:55:32.121Z,0.00
2018-04-12T00:56:32.308Z,0.00
2018-04-12T00:57:32.494Z,0.00
2018-04-12T00:58:32.682Z,0.00
2018-04-12T00:59:32.869Z,0.00
2018-04-12T01:00:33.055Z,0.00
2018-04-12T01:01:33.243Z,0.00
2018-04-12T01:02:33.431Z,0.00
2018-04-12T01:03:33.618Z,0.00
2018-04-12T01:04:33.804Z,0.00
2018-04-12T01:05:33.991Z,0.00
2018-04-12T01:06:34.187Z,0.00
2018-04-12T01:07:34.367Z,0.00
2018-04-12T01:08:34.554Z,0.00
2018-04-12T01:09:34.741Z,0.00
2018-04-12T01:10:34.928Z,0.00
2018-04-12T01:11:35.115Z,0.00
2018-04-12T01:12:35.299Z,0.00
2018-04-12T01:13:35.487Z,0.00
2018-04-12T01:14:35.674Z,0.00
2018-04-12T01:15:35.859Z,0.00
2018-04-12T01:16:36.045Z,0.00
2018-04-12T01:17:36.232Z,0.00
2018-04-12T01:18:36.420Z,0.00
2018-04-12T01:19:36.607Z,0.00
2018-04-12T01:20:36.796Z,0.00
2018-04-12T01:21:36.982Z,0.00
2018-04-12T01:22:37.168Z,0.00
2018-04-12T01:23:37.356Z,0.00
2018-04-12T01:24:37.542Z,0.00
2018-04-12T01:25:37.731Z,0.00
2018-04-12T01:26:37.917Z,0.00
2018-04-12T01:27:38.102Z,0.00
2018-04-12T01:28:38.291Z,0.00
2018-04-12T01:29:38.478Z,0.00
2018-04-12T01:30:38.665Z,0.00
2018-04-12T01:31:38.854Z,0.00
2018-04-12T01:32:39.040Z,0.00
2018-04-12T01:33:39.227Z,0.00
2018-04-12T01:34:39.414Z,0.00
2018-04-12T01:35:39.600Z,0.00
2018-04-12T01:36:39.787Z,0.00
2018-04-12T01:37:39.973Z,0.00
2018-04-12T01:38:40.161Z,0.00
2018-04-12T01:39:40.348Z,0.00
2018-04-12T01:40:40.535Z,0.00
2018-04-12T01:41:40.723Z,0.00
2018-04-12T01:42:40.909Z,0.00
2018-04-12T01:43:41.095Z,0.00
2018-04-12T01:44:41.282Z,0.00
2018-04-12T01:45:41.468Z,0.00
2018-04-12T01:46:41.655Z,0.00
2018-04-12T01:47:41.841Z,0.00
2018-04-12T01:48:42.029Z,0.00
2018-04-12T01:49:42.215Z,0.00
2018-04-12T01:50:42.402Z,0.00
2018-04-12T01:51:42.589Z,0.00
2018-04-12T01:52:42.775Z,0.00
2018-04-12T01:53:42.963Z,0.00
2018-04-12T01:54:43.149Z,0.00
2018-04-12T01:55:43.337Z,0.00
2018-04-12T01:56:43.523Z,0.00
2018-04-12T01:57:43.709Z,0.00
2018-04-12T01:58:43.896Z,0.00
2018-04-12T01:59:44.081Z,0.00
2018-04-12T02:00:44.267Z,0.00
2018-04-12T02:01:44.458Z,0.00
2018-04-12T02:02:44.648Z,0.00
2018-04-12T02:03:44.829Z,0.00
2018-04-12T02:04:45.016Z,0.00
2018-04-12T02:05:45.203Z,0.00
2018-04-12T02:06:45.390Z,0.00
2018-04-12T02:07:45.576Z,0.00
2018-04-12T02:08:45.763Z,0.00
2018-04-12T02:09:45.951Z,0.00
2018-04-12T02:10:46.137Z,0.00
2018-04-12T02:11:46.325Z,0.00
2018-04-12T02:12:46.511Z,0.00
2018-04-12T02:13:46.700Z,0.00
2018-04-12T02:14:46.887Z,0.00
2018-04-12T02:15:47.074Z,0.00
2018-04-12T02:16:47.260Z,0.00
2018-04-12T02:17:47.447Z,0.00
2018-04-12T02:18:47.634Z,0.00
2018-04-12T02:19:47.824Z,0.00
2018-04-12T02:20:48.009Z,0.00
2018-04-12T02:21:48.197Z,0.00
2018-04-12T02:22:48.388Z,0.00
2018-04-12T02:23:48.571Z,0.00
2018-04-12T02:24:48.757Z,0.00
2018-04-12T02:25:48.944Z,0.00
2018-04-12T02:26:49.130Z,0.00
2018-04-12T02:27:49.317Z,0.00
2018-04-12T02:28:49.553Z,0.00
2018-04-12T02:29:49.691Z,0.00
2018-04-12T02:30:49.879Z,0.00
2018-04-12T02:31:50.064Z,0.00
2018-04-12T02:32:50.251Z,0.00
2018-04-12T02:33:50.439Z,0.00
2018-04-12T02:34:50.626Z,0.00
2018-04-12T02:35:50.813Z,0.00
2018-04-12T02:36:51.000Z,0.00
2018-04-12T02:37:51.186Z,0.00
2018-04-12T02:38:51.373Z,0.00
2018-04-12T02:39:51.559Z,0.00
2018-04-12T02:40:51.748Z,0.00
2018-04-12T02:41:51.933Z,0.00
2018-04-12T02:42:52.119Z,0.00
2018-04-12T02:43:52.306Z,0.00
2018-04-12T02:44:52.493Z,0.00
2018-04-12T02:45:52.686Z,0.00
2018-04-12T02:46:52.868Z,0.00
2018-04-12T02:47:53.056Z,0.00
2018-04-12T02:48:53.240Z,0.00
2018-04-12T02:49:53.427Z,0.00
2018-04-12T02:50:53.614Z,0.00
2018-04-12T02:51:53.801Z,0.00
2018-04-12T02:52:53.988Z,0.00
2018-04-12T02:53:54.174Z,0.00
2018-04-12T02:54:54.361Z,0.00
2018-04-12T02:55:54.548Z,0.00
2018-04-12T02:56:54.735Z,0.00
2018-04-12T02:57:54.925Z,0.00
2018-04-12T02:58:55.108Z,0.00
2018-04-12T02:59:55.295Z,0.00
2018-04-12T03:00:55.481Z,0.00
2018-04-12T03:01:55.669Z,0.00
2018-04-12T03:02:55.855Z,0.00
2018-04-12T03:03:56.041Z,0.00
2018-04-12T03:04:56.227Z,0.00
2018-04-12T03:05:56.414Z,0.00
2018-04-12T03:06:56.600Z,0.00
2018-04-12T03:07:56.787Z,0.00
2018-04-12T03:08:56.974Z,0.00
2018-04-12T03:09:57.162Z,0.00
2018-04-12T03:10:57.349Z,0.00
2018-04-12T03:11:57.536Z,0.00
2018-04-12T03:12:57.727Z,0.00
2018-04-12T03:13:57.909Z,0.00
2018-04-12T03:14:58.096Z,0.00
2018-04-12T03:15:58.284Z,0.00
2018-04-12T03:16:58.471Z,0.00
2018-04-12T03:17:58.662Z,0.00
2018-04-12T03:18:58.845Z,0.00
2018-04-12T03:19:59.033Z,0.00
2018-04-12T03:20:59.218Z,0.00
2018-04-12T03:21:59.402Z,0.00
2018-04-12T03:22:59.589Z,0.00
2018-04-12T03:23:59.782Z,0.00
2018-04-12T03:24:59.960Z,0.00
2018-04-12T03:26:00.150Z,0.00
2018-04-12T03:27:00.334Z,0.00
2018-04-12T03:28:00.520Z,0.00
2018-04-12T03:29:00.706Z,0.00
2018-04-12T03:30:00.893Z,0.00
2018-04-12T03:31:01.082Z,0.00
2018-04-12T03:32:01.271Z,0.00
2018-04-12T03:33:01.454Z,0.00
2018-04-12T03:34:01.647Z,0.00
2018-04-12T03:35:01.828Z,0.00
2018-04-12T03:36:02.015Z,0.00
2018-04-12T03:37:02.201Z,0.00
2018-04-12T03:38:02.389Z,0.00
2018-04-12T03:39:02.575Z,0.00
2018-04-12T03:40:02.764Z,0.00
2018-04-12T03:41:02.949Z,0.00
2018-04-12T03:42:03.135Z,0.00
2018-04-12T03:43:03.321Z,0.00
2018-04-12T03:44:03.507Z,0.00
2018-04-12T03:45:03.696Z,0.00
2018-04-12T03:46:03.881Z,0.00
2018-04-12T03:47:04.068Z,0.00
2018-04-12T03:48:04.256Z,0.00
2018-04-12T03:49:04.451Z,0.00
2018-04-12T03:50:04.637Z,0.00
2018-04-12T03:51:04.817Z,0.00
2018-04-12T03:52:05.003Z,0.00
2018-04-12T03:53:05.189Z,0.00
2018-04-12T03:54:05.375Z,0.00
2018-04-12T03:55:05.562Z,0.00
2018-04-12T03:56:05.749Z,0.00
2018-04-12T03:57:05.937Z,0.00
2018-04-12T03:58:06.372Z,0.00
2018-04-12T03:59:06.324Z,0.00
2018-04-12T04:00:06.494Z,0.00
2018-04-12T04:01:06.703Z,0.00
2018-04-12T04:02:06.888Z,0.00
2018-04-12T04:03:07.076Z,0.00
2018-04-12T04:04:07.261Z,0.00
2018-04-12T04:05:07.449Z,0.00
2018-04-12T04:06:07.635Z,0.00
2018-04-12T04:07:07.823Z,0.00
2018-04-12T04:08:08.009Z,0.00
2018-04-12T04:09:08.194Z,0.00
2018-04-12T04:10:08.381Z,0.00
2018-04-12T04:11:08.569Z,0.00
2018-04-12T04:12:08.757Z,0.00
2018-04-12T04:13:08.943Z,0.00
2018-04-12T04:14:09.130Z,0.00
2018-04-12T04:15:09.316Z,0.00
2018-04-12T04:16:09.502Z,0.00
2018-04-12T04:17:09.689Z,0.00
2018-04-12T04:18:09.876Z,0.00
2018-04-12T04:19:10.062Z,0.00
2018-04-12T04:20:10.251Z,0.00
2018-04-12T04:21:10.438Z,0.00
2018-04-12T04:22:10.622Z,0.00
2018-04-12T04:23:10.810Z,0.00
2018-04-12T04:24:11.001Z,0.00
2018-04-12T04:25:11.185Z,0.00
2018-04-12T04:26:11.372Z,0.00
2018-04-12T04:27:11.562Z,0.00
2018-04-12T04:28:11.753Z,0.00
2018-04-12T04:29:11.933Z,0.00
2018-04-12T04:30:12.120Z,0.00
2018-04-12T04:31:12.307Z,0.00
2018-04-12T04:32:12.494Z,0.00
2018-04-12T04:33:12.681Z,0.00
2018-04-12T04:34:12.867Z,0.00
2018-04-12T04:35:13.056Z,0.00
2018-04-12T04:36:13.241Z,0.00
2018-04-12T04:37:13.430Z,0.00
2018-04-12T04:38:13.616Z,0.00
2018-04-12T04:39:13.803Z,5.63
2018-04-12T04:40:13.989Z,5.63
2018-04-12T04:41:14.176Z,5.63
2018-04-12T04:42:14.363Z,5.63
2018-04-12T04:43:14.549Z,5.63
2018-04-12T04:44:14.737Z,5.63
2018-04-12T04:45:14.923Z,5.63
2018-04-12T04:46:15.110Z,11.25
2018-04-12T04:47:15.299Z,11.25
2018-04-12T04:48:15.501Z,11.25
2018-04-12T04:49:15.671Z,11.25
2018-04-12T04:50:15.864Z,16.88
2018-04-12T04:51:16.047Z,16.88
2018-04-12T04:52:16.232Z,16.88
2018-04-12T04:53:16.423Z,16.88
2018-04-12T04:54:16.608Z,22.50
2018-04-12T04:55:16.795Z,22.50
2018-04-12T04:56:16.982Z,28.13
2018-04-12T04:57:17.172Z,28.13
2018-04-12T04:58:17.356Z,33.75
2018-04-12T04:59:17.541Z,39.38
2018-04-12T05:00:17.727Z,39.38
2018-04-12T05:01:17.916Z,45.00
2018-04-12T05:02:18.102Z,50.63
2018-04-12T05:03:18.289Z,50.63
2018-04-12T05:04:18.478Z,50.63
2018-04-12T05:05:18.665Z,50.63
2018-04-12T05:06:18.853Z,56.25
2018-04-12T05:07:19.059Z,61.88
2018-04-12T05:08:19.235Z,73.13
2018-04-12T05:09:19.423Z,84.38
2018-04-12T05:10:19.608Z,95.63
2018-04-12T05:11:19.796Z,101.25
2018-04-12T05:12:19.984Z,112.50
2018-04-12T05:13:20.169Z,118.13
2018-04-12T05:14:20.356Z,146.25
2018-04-12T05:15:20.538Z,163.13
2018-04-12T05:16:20.723Z,168.75
2018-04-12T05:17:20.904Z,163.13
2018-04-12T05:18:21.094Z,151.88
2018-04-12T05:19:21.279Z,174.38
2018-04-12T05:20:21.467Z,191.25
2018-04-12T05:21:21.655Z,213.75
2018-04-12T05:22:21.843Z,253.13
2018-04-12T05:23:22.030Z,348.75
2018-04-12T05:24:22.216Z,438.75
2018-04-12T05:25:22.403Z,450.00
2018-04-12T05:26:22.591Z,438.75
2018-04-12T05:27:22.777Z,421.88
2018-04-12T05:28:22.966Z,466.88
2018-04-12T05:29:23.153Z,573.75
2018-04-12T05:30:23.341Z,590.63
2018-04-12T05:31:23.529Z,590.63
2018-04-12T05:32:23.720Z,618.75
2018-04-12T05:33:23.906Z,646.88
2018-04-12T05:34:24.093Z,652.50
2018-04-12T05:35:24.282Z,624.38
2018-04-12T05:36:24.470Z,618.75
2018-04-12T05:37:24.661Z,630.00
2018-04-12T05:38:24.853Z,551.25
2018-04-12T05:39:25.038Z,590.63
2018-04-12T05:40:25.228Z,438.75
2018-04-12T05:41:25.417Z,337.50
2018-04-12T05:42:25.608Z,315.00
2018-04-12T05:43:25.798Z,393.75
2018-04-12T05:44:25.984Z,393.75
2018-04-12T05:45:26.173Z,348.75
2018-04-12T05:46:26.388Z,433.13
2018-04-12T05:47:26.551Z,337.50
2018-04-12T05:48:26.739Z,421.88
2018-04-12T05:49:26.929Z,444.38
2018-04-12T05:50:27.118Z,461.25
2018-04-12T05:51:27.306Z,444.38
2018-04-12T05:52:27.497Z,551.25
2018-04-12T05:53:27.685Z,596.25
2018-04-12T05:54:27.876Z,343.13
2018-04-12T05:55:28.064Z,270.00
2018-04-12T05:56:28.252Z,236.25
2018-04-12T05:57:28.440Z,213.75
2018-04-12T05:58:28.629Z,202.50
2018-04-12T05:59:28.817Z,196.88
2018-04-12T06:00:29.006Z,185.63
2018-04-12T06:01:29.194Z,174.38
2018-04-12T06:02:29.383Z,174.38
2018-04-12T06:03:29.570Z,168.75
2018-04-12T06:04:29.757Z,168.75
2018-04-12T06:05:29.947Z,168.75
2018-04-12T06:06:30.137Z,168.75
2018-04-12T06:07:30.328Z,168.75
2018-04-12T06:08:30.518Z,163.13
2018-04-12T06:09:30.703Z,163.13
2018-04-12T06:10:30.895Z,157.50
2018-04-12T06:11:31.081Z,151.88
2018-04-12T06:12:31.271Z,151.88
2018-04-12T06:13:31.456Z,157.50
2018-04-12T06:14:31.643Z,151.88
2018-04-12T06:15:31.838Z,157.50
2018-04-12T06:16:32.022Z,157.50
2018-04-12T06:17:32.210Z,163.13
2018-04-12T06:18:32.403Z,168.75
2018-04-12T06:19:32.588Z,196.88
2018-04-12T06:20:32.776Z,225.00
2018-04-12T06:21:32.963Z,247.50
2018-04-12T06:22:33.159Z,236.25
2018-04-12T06:23:33.339Z,281.25
2018-04-12T06:24:33.526Z,303.75
2018-04-12T06:25:33.715Z,320.63
2018-04-12T06:26:33.902Z,315.00
2018-04-12T06:27:34.090Z,320.63
2018-04-12T06:28:34.278Z,337.50
2018-04-12T06:29:34.466Z,320.63
2018-04-12T06:30:34.654Z,343.13
2018-04-12T06:31:34.843Z,331.88
2018-04-12T06:32:35.035Z,360.00
2018-04-12T06:33:35.220Z,354.38
2018-04-12T06:34:35.410Z,337.50
2018-04-12T06:35:35.598Z,331.88
2018-04-12T06:36:35.786Z,331.88
2018-04-12T06:37:35.976Z,331.88
2018-04-12T06:38:36.164Z,331.88
2018-04-12T06:39:36.352Z,337.50
2018-04-12T06:40:36.539Z,354.38
2018-04-12T06:41:36.728Z,371.25
2018-04-12T06:42:36.917Z,393.75
2018-04-12T06:43:37.106Z,444.38
2018-04-12T06:44:37.294Z,585.00
2018-04-12T06:45:37.484Z,928.13
2018-04-12T06:46:37.673Z,1265.63
2018-04-12T06:47:37.862Z,1468.13
2018-04-12T06:48:38.050Z,1760.63
2018-04-12T06:49:38.239Z,1473.75
2018-04-12T06:50:38.427Z,1012.50
2018-04-12T06:51:38.617Z,956.25
2018-04-12T06:52:38.805Z,933.75
2018-04-12T06:53:38.998Z,990.00
2018-04-12T06:54:39.183Z,956.25
2018-04-12T06:55:39.373Z,1096.88
2018-04-12T06:56:39.566Z,1181.25
2018-04-12T06:57:39.756Z,2193.75
2018-04-12T06:58:39.943Z,2238.75
2018-04-12T06:59:40.135Z,1906.88
2018-04-12T07:00:40.326Z,1676.25
2018-04-12T07:01:40.516Z,1333.13
2018-04-12T07:02:40.705Z,1732.50
2018-04-12T07:03:40.899Z,1468.13
2018-04-12T07:04:41.089Z,1648.13
2018-04-12T07:05:41.290Z,1580.63
2018-04-12T07:06:41.473Z,1755.00
2018-04-12T07:07:41.665Z,1788.75
2018-04-12T07:08:41.857Z,1726.88
2018-04-12T07:09:42.048Z,1890.00
2018-04-12T07:10:42.239Z,1361.25
2018-04-12T07:11:42.432Z,1361.25
2018-04-12T07:12:42.623Z,1845.00
2018-04-12T07:13:42.815Z,2176.88
2018-04-12T07:14:43.008Z,2171.25
2018-04-12T07:15:43.200Z,2379.38
2018-04-12T07:16:43.392Z,2491.88
2018-04-12T07:17:43.588Z,2649.38
2018-04-12T07:18:43.779Z,2598.75
2018-04-12T07:19:43.971Z,2446.88
2018-04-12T07:20:44.165Z,2458.13
2018-04-12T07:21:44.362Z,2801.25
2018-04-12T07:22:44.555Z,2953.13
2018-04-12T07:23:44.750Z,2981.25
2018-04-12T07:24:44.945Z,3071.25
2018-04-12T07:25:45.139Z,3015.00
2018-04-12T07:26:45.339Z,2941.88
2018-04-12T07:27:45.532Z,2868.75
2018-04-12T07:28:45.728Z,3031.88
2018-04-12T07:29:45.925Z,2896.88
2018-04-12T07:30:46.122Z,2896.88
2018-04-12T07:31:46.317Z,2868.75
2018-04-12T07:32:46.515Z,3037.50
2018-04-12T07:33:46.715Z,2936.25
2018-04-12T07:34:46.911Z,3105.00
2018-04-12T07:35:47.110Z,3009.38
2018-04-12T07:36:47.307Z,2896.88
2018-04-12T07:37:47.509Z,2655.00
2018-04-12T07:38:47.706Z,2981.25
2018-04-12T07:39:47.905Z,3150.00
2018-04-12T07:40:48.104Z,2970.00
2018-04-12T07:41:48.306Z,3043.13
2018-04-12T07:42:48.504Z,2880.00
2018-04-12T07:43:48.710Z,2700.00
2018-04-12T07:44:48.904Z,2930.63
2018-04-12T07:45:49.103Z,2570.63
2018-04-12T07:46:49.305Z,2413.13
2018-04-12T07:47:49.506Z,2784.38
2018-04-12T07:48:49.706Z,2716.88
2018-04-12T07:49:49.906Z,2576.25
2018-04-12T07:50:50.106Z,1749.38
2018-04-12T07:51:50.306Z,1136.25
2018-04-12T07:52:50.507Z,945.00
2018-04-12T07:53:50.705Z,956.25
2018-04-12T07:54:50.903Z,1608.75
2018-04-12T07:55:51.101Z,1670.63
2018-04-12T07:56:51.298Z,1552.50
2018-04-12T07:57:51.499Z,2047.50
2018-04-12T07:58:51.694Z,2413.13
2018-04-12T07:59:51.894Z,1873.13
2018-04-12T08:00:52.089Z,1423.13
2018-04-12T08:01:52.287Z,1080.00
2018-04-12T08:02:52.484Z,1125.00
2018-04-12T08:03:52.682Z,1946.25
2018-04-12T08:04:52.879Z,2340.00
2018-04-12T08:05:53.076Z,2902.50
2018-04-12T08:06:53.277Z,3082.50
2018-04-12T08:07:53.469Z,2913.75
2018-04-12T08:08:53.667Z,2761.88
2018-04-12T08:09:53.864Z,2936.25
2018-04-12T08:10:54.059Z,2784.38
2018-04-12T08:11:54.258Z,2570.63
2018-04-12T08:12:54.455Z,1980.00
2018-04-12T08:13:54.659Z,2328.75
2018-04-12T08:14:54.851Z,2626.88
2018-04-12T08:15:55.048Z,2818.13
2018-04-12T08:16:55.245Z,2750.63
2018-04-12T08:17:55.442Z,2941.88
2018-04-12T08:18:55.638Z,2981.25
2018-04-12T08:19:55.836Z,2857.50
2018-04-12T08:20:56.035Z,2998.13
2018-04-12T08:21:56.229Z,2930.63
2018-04-12T08:22:56.433Z,2874.38
2018-04-12T08:23:56.625Z,2863.13
2018-04-12T08:24:56.823Z,2846.25
2018-04-12T08:25:57.026Z,2739.38
2018-04-12T08:26:57.218Z,2621.25
2018-04-12T08:27:57.417Z,2356.88
2018-04-12T08:28:57.614Z,2700.00
2018-04-12T08:29:57.816Z,2728.13
2018-04-12T08:30:58.012Z,2587.50
2018-04-12T08:31:58.207Z,2683.13
2018-04-12T08:32:58.405Z,2469.38
2018-04-12T08:33:58.601Z,2154.38
2018-04-12T08:34:58.803Z,1918.13
2018-04-12T08:35:58.994Z,1929.38
2018-04-12T08:36:59.192Z,1873.13
2018-04-12T08:37:59.388Z,2323.13
2018-04-12T08:38:59.584Z,2261.25
2018-04-12T08:39:59.781Z,1884.38
2018-04-12T08:40:59.978Z,2205.00
2018-04-12T08:42:00.175Z,2491.88
2018-04-12T08:43:00.370Z,2823.75
2018-04-12T08:44:00.565Z,2846.25
2018-04-12T08:45:00.763Z,2874.38
2018-04-12T08:46:00.959Z,2925.00
2018-04-12T08:47:01.156Z,2874.38
2018-04-12T08:48:01.389Z,2863.13
2018-04-12T08:49:01.549Z,2823.75
2018-04-12T08:50:01.749Z,2418.75
2018-04-12T08:51:01.945Z,2750.63
2018-04-12T08:52:02.166Z,2745.00
2018-04-12T08:53:02.337Z,2722.50
2018-04-12T08:54:02.533Z,2700.00
2018-04-12T08:55:02.730Z,2694.38
2018-04-12T08:56:02.927Z,2694.38
2018-04-12T08:57:03.124Z,2666.25
2018-04-12T08:58:03.336Z,2643.75
2018-04-12T08:59:03.624Z,2660.63
2018-04-12T09:00:03.788Z,2632.50
2018-04-12T09:01:03.873Z,2598.75
2018-04-12T09:02:04.070Z,2593.13
2018-04-12T09:03:04.263Z,2598.75
2018-04-12T09:04:04.460Z,2559.38
2018-04-12T09:05:04.659Z,2598.75
2018-04-12T09:06:04.857Z,2604.38
2018-04-12T09:07:05.052Z,2565.00
2018-04-12T09:08:05.249Z,2548.13
2018-04-12T09:09:05.447Z,2542.50
2018-04-12T09:10:05.644Z,2475.00
2018-04-12T09:11:05.839Z,2480.63
2018-04-12T09:12:06.037Z,2503.13
2018-04-12T09:13:06.236Z,2435.63
2018-04-12T09:14:06.432Z,2407.50
2018-04-12T09:15:06.629Z,2373.75
2018-04-12T09:16:06.828Z,2368.13
2018-04-12T09:17:07.027Z,2328.75
2018-04-12T09:18:07.224Z,2323.13
2018-04-12T09:19:07.421Z,2295.00
2018-04-12T09:20:07.618Z,2306.25
2018-04-12T09:21:07.815Z,2272.50
2018-04-12T09:22:08.013Z,2244.38
2018-04-12T09:23:08.209Z,2216.25
2018-04-12T09:24:08.407Z,2233.13
2018-04-12T09:25:08.608Z,2176.88
2018-04-12T09:26:08.798Z,2171.25
2018-04-12T09:27:08.993Z,2176.88
2018-04-12T09:28:09.197Z,2143.13
2018-04-12T09:29:09.389Z,2137.50
2018-04-12T09:30:09.585Z,2131.88
2018-04-12T09:31:09.783Z,2171.25
2018-04-12T09:32:09.979Z,2137.50
2018-04-12T09:33:10.174Z,2086.88
2018-04-12T09:34:10.374Z,1710.00
2018-04-12T09:35:10.570Z,1524.38
2018-04-12T09:36:10.768Z,1434.38
2018-04-12T09:37:10.963Z,1108.13
2018-04-12T09:38:11.159Z,742.50
2018-04-12T09:39:11.359Z,753.75
2018-04-12T09:40:11.550Z,798.75
2018-04-12T09:41:11.746Z,798.75
2018-04-12T09:42:11.941Z,798.75
2018-04-12T09:43:12.135Z,658.13
2018-04-12T09:44:12.329Z,641.25
2018-04-12T09:45:12.523Z,601.88
2018-04-12T09:46:12.717Z,613.13
2018-04-12T09:47:12.908Z,646.88
2018-04-12T09:48:13.102Z,742.50
2018-04-12T09:49:13.307Z,720.00
2018-04-12T09:50:13.488Z,720.00
2018-04-12T09:51:13.682Z,714.38
2018-04-12T09:52:13.873Z,708.75
2018-04-12T09:53:14.067Z,708.75
2018-04-12T09:54:14.260Z,703.13
2018-04-12T09:55:14.453Z,703.13
2018-04-12T09:56:14.645Z,691.88
2018-04-12T09:57:14.840Z,697.50
2018-04-12T09:58:15.032Z,686.25
2018-04-12T09:59:15.225Z,675.00
2018-04-12T10:00:15.418Z,669.38
2018-04-12T10:01:15.613Z,663.75
2018-04-12T10:02:15.802Z,658.13
2018-04-12T10:03:15.999Z,658.13
2018-04-12T10:04:16.188Z,658.13
2018-04-12T10:05:16.380Z,658.13
2018-04-12T10:06:16.573Z,652.50
2018-04-12T10:07:16.767Z,646.88
2018-04-12T10:08:16.964Z,658.13
2018-04-12T10:09:17.151Z,646.88
2018-04-12T10:10:17.345Z,641.25
2018-04-12T10:11:17.538Z,646.88
2018-04-12T10:12:17.730Z,641.25
2018-04-12T10:13:17.922Z,646.88
2018-04-12T10:14:18.117Z,646.88
2018-04-12T10:15:18.310Z,641.25
2018-04-12T10:16:18.504Z,641.25
2018-04-12T10:17:18.696Z,635.63
2018-04-12T10:18:18.888Z,635.63
2018-04-12T10:19:19.080Z,635.63
2018-04-12T10:20:19.273Z,635.63
2018-04-12T10:21:19.467Z,630.00
2018-04-12T10:22:19.660Z,630.00
2018-04-12T10:23:19.852Z,630.00
2018-04-12T10:24:20.045Z,618.75
2018-04-12T10:25:20.237Z,624.38
2018-04-12T10:26:20.430Z,618.75
2018-04-12T10:27:20.622Z,630.00
2018-04-12T10:28:20.797Z,624.38
2018-04-12T10:29:20.990Z,630.00
2018-04-12T10:30:21.181Z,624.38
2018-04-12T10:31:21.373Z,624.38
2018-04-12T10:32:21.567Z,618.75
2018-04-12T10:33:21.758Z,613.13
2018-04-12T10:34:21.953Z,607.50
2018-04-12T10:35:22.145Z,613.13
2018-04-12T10:36:22.338Z,596.25
2018-04-12T10:37:22.530Z,601.88
2018-04-12T10:38:22.723Z,585.00
2018-04-12T10:39:22.932Z,596.25
2018-04-12T10:40:23.108Z,601.88
2018-04-12T10:41:23.301Z,618.75
2018-04-12T10:42:23.498Z,618.75
2018-04-12T10:43:23.685Z,630.00
2018-04-12T10:44:23.909Z,663.75
2018-04-12T10:45:24.077Z,725.63
2018-04-12T10:46:24.266Z,905.63
2018-04-12T10:47:24.459Z,973.13
2018-04-12T10:48:24.654Z,905.63
2018-04-12T10:49:24.852Z,815.63
2018-04-12T10:50:25.045Z,821.25
2018-04-12T10:51:25.236Z,793.13
2018-04-12T10:52:25.428Z,832.50
2018-04-12T10:53:25.627Z,781.88
2018-04-12T10:54:25.816Z,821.25
2018-04-12T10:55:26.015Z,838.13
2018-04-12T10:56:26.204Z,922.50
2018-04-12T10:57:26.397Z,933.75
2018-04-12T10:58:26.590Z,877.50
2018-04-12T10:59:26.840Z,798.75
2018-04-12T11:00:26.976Z,736.88
2018-04-12T11:01:27.170Z,680.63
2018-04-12T11:02:27.363Z,669.38
2018-04-12T11:03:27.623Z,669.38
2018-04-12T11:04:27.750Z,658.13
2018-04-12T11:05:27.943Z,703.13
2018-04-12T11:06:28.143Z,708.75
2018-04-12T11:07:28.331Z,720.00
2018-04-12T11:08:28.525Z,686.25
2018-04-12T11:09:28.720Z,686.25
2018-04-12T11:10:28.913Z,658.13
2018-04-12T11:11:29.108Z,635.63
2018-04-12T11:12:29.303Z,601.88
2018-04-12T11:13:29.495Z,568.13
2018-04-12T11:14:29.689Z,511.88
2018-04-12T11:15:29.882Z,506.25
2018-04-12T11:16:30.081Z,506.25
2018-04-12T11:17:30.269Z,511.88
2018-04-12T11:18:30.583Z,511.88
2018-04-12T11:19:30.657Z,511.88
2018-04-12T11:20:30.850Z,500.63
2018-04-12T11:21:31.043Z,500.63
2018-04-12T11:22:31.240Z,489.38
2018-04-12T11:23:31.452Z,483.75
2018-04-12T11:24:31.624Z,483.75
2018-04-12T11:25:31.818Z,478.13
2018-04-12T11:26:32.012Z,478.13
2018-04-12T11:27:32.203Z,478.13
2018-04-12T11:28:32.432Z,478.13
2018-04-12T11:29:32.588Z,478.13
2018-04-12T11:30:32.780Z,483.75
2018-04-12T11:31:33.009Z,438.75
2018-04-12T11:32:33.171Z,405.00
2018-04-12T11:33:33.361Z,450.00
2018-04-12T11:34:33.570Z,466.88
2018-04-12T11:35:33.748Z,472.50
2018-04-12T11:36:33.942Z,472.50
2018-04-12T11:37:34.135Z,472.50
2018-04-12T11:38:34.329Z,466.88
2018-04-12T11:39:34.522Z,461.25
2018-04-12T11:40:34.748Z,455.63
2018-04-12T11:41:34.909Z,455.63
2018-04-12T11:42:35.109Z,444.38
2018-04-12T11:43:35.294Z,444.38
2018-04-12T11:44:35.487Z,444.38
2018-04-12T11:45:35.677Z,444.38
2018-04-12T11:46:35.906Z,444.38
2018-04-12T11:47:36.065Z,444.38
2018-04-12T11:48:36.257Z,444.38
2018-04-12T11:49:36.456Z,438.75
2018-04-12T11:50:36.644Z,438.75
2018-04-12T11:51:36.840Z,438.75
2018-04-12T11:52:37.031Z,433.13
2018-04-12T11:53:37.221Z,438.75
2018-04-12T11:54:37.414Z,433.13
2018-04-12T11:55:37.608Z,421.88
2018-04-12T11:56:37.800Z,438.75
2018-04-12T11:57:37.993Z,410.63
2018-04-12T11:58:38.188Z,450.00
2018-04-12T11:59:38.380Z,450.00
2018-04-12T12:00:38.571Z,489.38
2018-04-12T12:01:38.806Z,506.25
2018-04-12T12:02:38.956Z,506.25
2018-04-12T12:03:39.151Z,506.25
2018-04-12T12:04:39.344Z,500.63
2018-04-12T12:05:39.537Z,495.00
2018-04-12T12:06:39.731Z,500.63
2018-04-12T12:07:39.924Z,506.25
2018-04-12T12:08:40.117Z,511.88
2018-04-12T12:09:40.309Z,523.13
2018-04-12T12:10:40.505Z,511.88
2018-04-12T12:11:40.697Z,540.00
2018-04-12T12:12:40.890Z,534.38
2018-04-12T12:13:41.084Z,551.25
2018-04-12T12:14:41.277Z,573.75
2018-04-12T12:15:41.471Z,585.00
2018-04-12T12:16:41.666Z,613.13
2018-04-12T12:17:41.899Z,630.00
2018-04-12T12:18:42.049Z,658.13
2018-04-12T12:19:42.240Z,646.88
2018-04-12T12:20:42.435Z,663.75
2018-04-12T12:21:42.630Z,613.13
2018-04-12T12:22:42.823Z,613.13
2018-04-12T12:23:43.045Z,601.88
2018-04-12T12:24:43.210Z,590.63
2018-04-12T12:25:43.405Z,573.75
2018-04-12T12:26:43.597Z,596.25
2018-04-12T12:27:43.791Z,585.00
2018-04-12T12:28:43.984Z,590.63
2018-04-12T12:29:44.180Z,607.50
2018-04-12T12:30:44.370Z,624.38
2018-04-12T12:31:44.564Z,680.63
2018-04-12T12:32:44.759Z,635.63
2018-04-12T12:33:44.953Z,658.13
2018-04-12T12:34:45.146Z,624.38
2018-04-12T12:35:45.342Z,618.75
2018-04-12T12:36:45.538Z,624.38
2018-04-12T12:37:45.734Z,613.13
2018-04-12T12:38:45.927Z,613.13
2018-04-12T12:39:46.121Z,624.38
2018-04-12T12:40:46.316Z,658.13
2018-04-12T12:41:46.510Z,658.13
2018-04-12T12:42:46.705Z,646.88
2018-04-12T12:43:46.942Z,624.38